createdAt,value
2018-09-19T00:00:45.588Z,17.88
2018-09-19T00:01:45.572Z,17.91
2018-09-19T00:02:45.556Z,17.90
2018-09-19T00:03:45.531Z,17.84
2018-09-19T00:04:45.541Z,17.87
2018-09-19T00:05:45.504Z,17.88
2018-09-19T00:06:45.521Z,17.86
2018-09-19T00:07:45.458Z,17.78
2018-09-19T00:08:45.440Z,17.76
2018-09-19T00:09:45.425Z,17.72
2018-09-19T00:10:45.406Z,17.79
2018-09-19T00:11:45.404Z,17.76
2018-09-19T00:12:45.376Z,17.81
2018-09-19T00:13:45.365Z,17.69
2018-09-19T00:14:45.338Z,17.73
2018-09-19T00:15:45.328Z,17.62
2018-09-19T00:16:45.298Z,17.57
2018-09-19T00:17:45.301Z,17.56
2018-09-19T00:18:45.279Z,17.65
2018-09-19T00:19:45.256Z,17.56
2018-09-19T00:20:45.243Z,17.56
2018-09-19T00:21:45.207Z,17.53
2018-09-19T00:22:45.209Z,17.50
2018-09-19T00:23:45.177Z,17.52
2018-09-19T00:24:45.158Z,17.45
2018-09-19T00:25:45.141Z,17.45
2018-09-19T00:26:45.125Z,17.45
2018-09-19T00:27:45.101Z,17.43
2018-09-19T00:28:45.095Z,17.38
2018-09-19T00:29:45.067Z,17.30
2018-09-19T00:30:45.058Z,17.32
2018-09-19T00:31:45.036Z,17.32
2018-09-19T00:32:45.020Z,17.24
2018-09-19T00:33:45.001Z,17.31
2018-09-19T00:34:45.031Z,17.28
2018-09-19T00:35:45.017Z,17.17
2018-09-19T00:36:44.952Z,17.17
2018-09-19T00:37:44.920Z,17.20
2018-09-19T00:38:44.911Z,17.12
2018-09-19T00:39:44.904Z,17.17
2018-09-19T00:40:44.877Z,17.16
2018-09-19T00:41:44.873Z,17.19
2018-09-19T00:42:44.839Z,17.12
2018-09-19T00:43:44.817Z,17.19
2018-09-19T00:44:44.800Z,17.20
2018-09-19T00:45:44.781Z,17.16
2018-09-19T00:46:44.767Z,17.09
2018-09-19T00:47:44.746Z,16.99
2018-09-19T00:48:44.730Z,16.97
2018-09-19T00:49:44.709Z,16.99
2018-09-19T00:50:44.693Z,16.94
2018-09-19T00:51:44.677Z,16.92
2018-09-19T00:52:44.659Z,16.92
2018-09-19T00:53:44.630Z,16.90
2018-09-19T00:54:44.618Z,16.90
2018-09-19T00:55:44.600Z,16.91
2018-09-19T00:56:44.601Z,16.87
2018-09-19T00:57:44.563Z,16.88
2018-09-19T00:58:44.546Z,16.90
2018-09-19T00:59:44.526Z,16.90
2018-09-19T01:00:44.509Z,16.82
2018-09-19T01:01:44.494Z,16.84
2018-09-19T01:02:44.468Z,16.80
2018-09-19T01:03:44.455Z,16.83
2018-09-19T01:04:44.437Z,16.84
2018-09-19T01:05:44.421Z,16.74
2018-09-19T01:06:44.394Z,16.76
2018-09-19T01:07:44.382Z,16.74
2018-09-19T01:08:44.362Z,16.73
2018-09-19T01:09:44.344Z,16.65
2018-09-19T01:10:44.340Z,16.76
2018-09-19T01:11:44.315Z,16.62
2018-09-19T01:12:44.306Z,16.67
2018-09-19T01:13:44.270Z,16.67
2018-09-19T01:14:44.252Z,16.65
2018-09-19T01:15:44.229Z,16.67
2018-09-19T01:16:44.217Z,16.59
2018-09-19T01:17:44.201Z,16.64
2018-09-19T01:18:44.210Z,16.67
2018-09-19T01:19:44.164Z,16.65
2018-09-19T01:20:44.146Z,16.65
2018-09-19T01:21:44.129Z,16.69
2018-09-19T01:22:44.109Z,16.64
2018-09-19T01:23:44.093Z,16.64
2018-09-19T01:24:44.069Z,16.62
2018-09-19T01:25:44.052Z,16.58
2018-09-19T01:26:44.032Z,16.54
2018-09-19T01:27:44.012Z,16.54
2018-09-19T01:28:44.041Z,16.57
2018-09-19T01:29:43.980Z,16.58
2018-09-19T01:30:43.956Z,16.47
2018-09-19T01:31:43.939Z,16.47
2018-09-19T01:32:43.924Z,16.43
2018-09-19T01:33:43.903Z,16.40
2018-09-19T01:34:43.886Z,16.39
2018-09-19T01:35:43.866Z,16.39
2018-09-19T01:36:43.849Z,16.36
2018-09-19T01:37:43.836Z,16.36
2018-09-19T01:38:43.813Z,16.34
2018-09-19T01:39:43.782Z,16.26
2018-09-19T01:40:43.785Z,16.24
2018-09-19T01:41:43.801Z,16.18
2018-09-19T01:42:43.736Z,16.24
2018-09-19T01:43:43.719Z,16.24
2018-09-19T01:44:43.700Z,16.25
2018-09-19T01:45:43.680Z,16.13
2018-09-19T01:46:43.664Z,16.09
2018-09-19T01:47:43.650Z,16.09
2018-09-19T01:48:43.623Z,16.13
2018-09-19T01:49:43.608Z,16.10
2018-09-19T01:50:43.589Z,16.24
2018-09-19T01:51:43.566Z,16.18
2018-09-19T01:52:43.552Z,16.21
2018-09-19T01:53:43.532Z,16.18
2018-09-19T01:54:43.517Z,16.06
2018-09-19T01:55:43.498Z,16.10
2018-09-19T01:56:43.476Z,16.09
2018-09-19T01:57:43.462Z,16.09
2018-09-19T01:58:43.438Z,15.99
2018-09-19T01:59:43.429Z,16.08
2018-09-19T02:00:43.402Z,16.00
2018-09-19T02:01:43.387Z,16.03
2018-09-19T02:02:43.382Z,16.00
2018-09-19T02:03:43.348Z,15.99
2018-09-19T02:04:43.325Z,16.00
2018-09-19T02:05:43.312Z,15.98
2018-09-19T02:06:43.289Z,16.02
2018-09-19T02:07:43.271Z,15.98
2018-09-19T02:08:43.251Z,15.99
2018-09-19T02:09:43.240Z,16.00
2018-09-19T02:10:43.212Z,16.00
2018-09-19T02:11:43.197Z,15.96
2018-09-19T02:12:43.177Z,15.96
2018-09-19T02:13:43.161Z,15.96
2018-09-19T02:14:43.138Z,15.96
2018-09-19T02:15:43.118Z,15.95
2018-09-19T02:16:43.107Z,16.00
2018-09-19T02:17:43.089Z,15.91
2018-09-19T02:18:43.063Z,15.96
2018-09-19T02:19:43.048Z,16.02
2018-09-19T02:20:43.026Z,15.99
2018-09-19T02:21:43.005Z,15.99
2018-09-19T02:22:42.988Z,15.98
2018-09-19T02:23:42.971Z,15.98
2018-09-19T02:24:42.947Z,16.08
2018-09-19T02:25:42.931Z,15.95
2018-09-19T02:26:42.918Z,15.96
2018-09-19T02:27:42.930Z,15.95
2018-09-19T02:28:42.919Z,15.90
2018-09-19T02:29:42.860Z,15.90
2018-09-19T02:30:42.840Z,15.90
2018-09-19T02:31:42.821Z,15.98
2018-09-19T02:32:42.801Z,15.95
2018-09-19T02:33:42.784Z,15.88
2018-09-19T02:34:42.769Z,15.93
2018-09-19T02:35:42.742Z,15.83
2018-09-19T02:36:42.733Z,15.85
2018-09-19T02:37:42.712Z,15.84
2018-09-19T02:38:42.689Z,15.87
2018-09-19T02:39:42.661Z,15.84
2018-09-19T02:40:42.661Z,15.81
2018-09-19T02:41:42.631Z,15.84
2018-09-19T02:42:42.632Z,15.81
2018-09-19T02:43:42.606Z,15.84
2018-09-19T02:44:42.577Z,15.81
2018-09-19T02:45:42.556Z,15.83
2018-09-19T02:46:42.538Z,15.80
2018-09-19T02:47:42.535Z,15.80
2018-09-19T02:48:42.501Z,15.83
2018-09-19T02:49:42.485Z,15.87
2018-09-19T02:50:42.461Z,15.87
2018-09-19T02:51:42.434Z,15.85
2018-09-19T02:52:42.424Z,15.81
2018-09-19T02:53:42.403Z,15.85
2018-09-19T02:54:42.393Z,15.87
2018-09-19T02:55:42.392Z,15.85
2018-09-19T02:56:42.349Z,15.83
2018-09-19T02:57:42.333Z,15.76
2018-09-19T02:58:42.304Z,15.80
2018-09-19T02:59:42.305Z,15.73
2018-09-19T03:00:42.282Z,15.77
2018-09-19T03:01:42.278Z,15.78
2018-09-19T03:02:42.233Z,15.77
2018-09-19T03:03:42.232Z,15.73
2018-09-19T03:05:42.183Z,15.80
2018-09-19T03:06:42.158Z,15.69
2018-09-19T03:07:42.142Z,15.72
2018-09-19T03:08:42.120Z,15.70
2018-09-19T03:09:42.101Z,15.70
2018-09-19T03:10:42.086Z,15.76
2018-09-19T03:11:42.057Z,15.76
2018-09-19T03:12:42.051Z,15.72
2018-09-19T03:13:42.028Z,15.73
2018-09-19T03:14:42.006Z,15.69
2018-09-19T03:15:41.988Z,15.69
2018-09-19T03:16:41.971Z,15.70
2018-09-19T03:17:42.087Z,15.69
2018-09-19T03:18:41.930Z,15.70
2018-09-19T03:19:41.910Z,15.72
2018-09-19T03:20:41.907Z,15.63
2018-09-19T03:21:41.882Z,15.68
2018-09-19T03:22:41.857Z,15.69
2018-09-19T03:23:41.830Z,15.63
2018-09-19T03:24:41.820Z,15.66
2018-09-19T03:25:41.819Z,15.62
2018-09-19T03:26:41.783Z,15.68
2018-09-19T03:27:41.764Z,15.72
2018-09-19T03:28:41.739Z,15.73
2018-09-19T03:29:41.723Z,15.63
2018-09-19T03:30:41.699Z,15.66
2018-09-19T03:31:41.680Z,15.62
2018-09-19T03:32:41.658Z,15.63
2018-09-19T03:33:41.647Z,15.60
2018-09-19T03:34:41.629Z,15.62
2018-09-19T03:35:41.611Z,15.63
2018-09-19T03:36:41.595Z,15.63
2018-09-19T03:37:41.570Z,15.63
2018-09-19T03:38:41.558Z,15.63
2018-09-19T03:39:41.527Z,15.63
2018-09-19T03:40:41.541Z,15.60
2018-09-19T03:41:41.498Z,15.56
2018-09-19T03:42:41.476Z,15.62
2018-09-19T03:43:41.465Z,15.62
2018-09-19T03:44:41.440Z,15.62
2018-09-19T03:45:41.412Z,15.60
2018-09-19T03:46:41.397Z,15.62
2018-09-19T03:47:41.374Z,15.66
2018-09-19T03:48:41.376Z,15.63
2018-09-19T03:49:41.347Z,15.62
2018-09-19T03:50:41.327Z,15.59
2018-09-19T03:51:41.298Z,15.60
2018-09-19T03:52:41.277Z,15.59
2018-09-19T03:53:41.275Z,15.62
2018-09-19T03:54:41.251Z,15.60
2018-09-19T03:55:41.224Z,15.52
2018-09-19T03:56:41.206Z,15.60
2018-09-19T03:57:41.195Z,15.56
2018-09-19T03:58:41.177Z,15.52
2018-09-19T03:59:41.172Z,15.63
2018-09-19T04:00:41.135Z,15.47
2018-09-19T04:01:41.110Z,15.54
2018-09-19T04:02:41.095Z,15.52
2018-09-19T04:03:41.069Z,15.48
2018-09-19T04:04:41.056Z,15.58
2018-09-19T04:05:41.043Z,15.60
2018-09-19T04:06:41.024Z,15.52
2018-09-19T04:07:40.999Z,15.59
2018-09-19T04:08:40.985Z,15.60
2018-09-19T04:09:40.960Z,15.59
2018-09-19T04:10:40.947Z,15.51
2018-09-19T04:11:40.921Z,15.50
2018-09-19T04:12:40.907Z,15.51
2018-09-19T04:13:40.884Z,15.51
2018-09-19T04:14:40.867Z,15.51
2018-09-19T04:15:40.844Z,15.44
2018-09-19T04:16:40.837Z,15.58
2018-09-19T04:17:40.815Z,15.44
2018-09-19T04:18:40.795Z,15.50
2018-09-19T04:19:40.767Z,15.47
2018-09-19T04:20:40.767Z,15.51
2018-09-19T04:21:40.750Z,15.45
2018-09-19T04:22:40.715Z,15.40
2018-09-19T04:23:40.695Z,15.50
2018-09-19T04:24:40.687Z,15.45
2018-09-19T04:25:40.658Z,15.52
2018-09-19T04:26:40.641Z,15.44
2018-09-19T04:27:40.615Z,15.51
2018-09-19T04:28:40.595Z,15.51
2018-09-19T04:29:40.582Z,15.47
2018-09-19T04:30:40.565Z,15.43
2018-09-19T04:31:40.544Z,15.54
2018-09-19T04:32:40.518Z,15.50
2018-09-19T04:33:40.497Z,15.43
2018-09-19T04:34:40.482Z,15.51
2018-09-19T04:35:40.459Z,15.44
2018-09-19T04:36:40.446Z,15.40
2018-09-19T04:37:40.423Z,15.45
2018-09-19T04:38:40.405Z,15.45
2018-09-19T04:39:40.387Z,15.45
2018-09-19T04:40:40.372Z,15.51
2018-09-19T04:41:40.354Z,15.45
2018-09-19T04:42:40.322Z,15.47
2018-09-19T04:43:40.319Z,15.51
2018-09-19T04:44:40.289Z,15.44
2018-09-19T04:45:40.283Z,15.51
2018-09-19T04:46:40.259Z,15.52
2018-09-19T04:47:40.229Z,15.60
2018-09-19T04:48:40.209Z,15.62
2018-09-19T04:49:40.193Z,15.69
2018-09-19T04:50:40.174Z,15.73
2018-09-19T04:51:40.214Z,15.81
2018-09-19T04:52:40.141Z,15.77
2018-09-19T04:53:40.132Z,15.84
2018-09-19T04:54:40.106Z,15.90
2018-09-19T04:55:40.079Z,15.95
2018-09-19T04:56:40.063Z,15.95
2018-09-19T04:57:40.041Z,16.03
2018-09-19T04:58:40.026Z,16.03
2018-09-19T04:59:40.005Z,16.06
2018-09-19T05:00:39.989Z,16.09
2018-09-19T05:01:39.967Z,16.06
2018-09-19T05:02:39.953Z,16.09
2018-09-19T05:03:39.928Z,16.21
2018-09-19T05:04:39.914Z,16.17
2018-09-19T05:05:39.904Z,16.10
2018-09-19T05:06:39.871Z,16.21
2018-09-19T05:07:39.852Z,16.21
2018-09-19T05:08:39.835Z,16.17
2018-09-19T05:09:39.813Z,16.21
2018-09-19T05:10:39.795Z,16.10
2018-09-19T05:11:39.776Z,16.24
2018-09-19T05:12:39.754Z,16.24
2018-09-19T05:13:39.741Z,16.28
2018-09-19T05:14:39.719Z,16.28
2018-09-19T05:15:39.701Z,16.24
2018-09-19T05:16:39.689Z,16.28
2018-09-19T05:17:39.670Z,16.26
2018-09-19T05:18:39.649Z,16.25
2018-09-19T05:19:39.620Z,16.25
2018-09-19T05:20:39.606Z,16.36
2018-09-19T05:21:39.598Z,16.40
2018-09-19T05:22:39.570Z,16.37
2018-09-19T05:23:39.550Z,16.37
2018-09-19T05:24:39.536Z,16.36
2018-09-19T05:25:39.510Z,16.33
2018-09-19T05:26:39.492Z,16.43
2018-09-19T05:27:39.477Z,16.39
2018-09-19T05:28:39.455Z,16.42
2018-09-19T05:29:39.434Z,16.40
2018-09-19T05:30:39.410Z,16.44
2018-09-19T05:31:39.413Z,16.46
2018-09-19T05:32:39.380Z,16.44
2018-09-19T05:33:39.357Z,16.49
2018-09-19T05:34:39.352Z,16.51
2018-09-19T05:35:39.323Z,16.44
2018-09-19T05:36:39.474Z,16.49
2018-09-19T05:37:39.285Z,16.46
2018-09-19T05:38:39.266Z,16.51
2018-09-19T05:39:39.243Z,16.57
2018-09-19T05:40:39.229Z,16.54
2018-09-19T05:41:39.209Z,16.61
2018-09-19T05:42:39.201Z,16.54
2018-09-19T05:43:39.171Z,16.61
2018-09-19T05:44:39.152Z,16.58
2018-09-19T05:45:39.400Z,16.52
2018-09-19T05:46:39.123Z,16.64
2018-09-19T05:47:39.088Z,16.61
2018-09-19T05:48:39.074Z,16.62
2018-09-19T05:49:39.060Z,16.69
2018-09-19T05:50:39.044Z,16.72
2018-09-19T05:51:39.018Z,16.70
2018-09-19T05:52:39.007Z,16.80
2018-09-19T05:53:38.984Z,16.77
2018-09-19T05:54:39.044Z,16.83
2018-09-19T05:55:38.940Z,16.87
2018-09-19T05:56:38.926Z,16.87
2018-09-19T05:57:38.908Z,16.87
2018-09-19T05:58:38.888Z,16.91
2018-09-19T05:59:38.870Z,16.95
2018-09-19T06:00:38.850Z,16.98
2018-09-19T06:01:38.835Z,16.99
2018-09-19T06:02:38.817Z,17.01
2018-09-19T06:03:38.792Z,17.09
2018-09-19T06:04:38.777Z,17.22
2018-09-19T06:05:38.756Z,17.09
2018-09-19T06:06:38.737Z,17.20
2018-09-19T06:07:38.720Z,17.16
2018-09-19T06:08:38.704Z,17.25
2018-09-19T06:09:38.682Z,17.22
2018-09-19T06:10:38.664Z,17.31
2018-09-19T06:11:38.643Z,17.37
2018-09-19T06:12:38.643Z,17.39
2018-09-19T06:13:38.606Z,17.41
2018-09-19T06:14:38.588Z,17.41
2018-09-19T06:15:38.565Z,17.57
2018-09-19T06:16:38.560Z,17.52
2018-09-19T06:17:38.534Z,17.52
2018-09-19T06:18:38.514Z,17.56
2018-09-19T06:19:38.499Z,17.63
2018-09-19T06:20:38.481Z,17.65
2018-09-19T06:21:38.460Z,17.66
2018-09-19T06:22:38.446Z,17.79
2018-09-19T06:23:38.423Z,17.72
2018-09-19T06:24:38.405Z,17.83
2018-09-19T06:25:38.386Z,17.88
2018-09-19T06:26:38.374Z,17.93
2018-09-19T06:27:38.351Z,17.93
2018-09-19T06:28:38.330Z,17.97
2018-09-19T06:29:38.318Z,17.97
2018-09-19T06:30:38.297Z,17.94
2018-09-19T06:31:38.276Z,18.02
2018-09-19T06:32:38.270Z,18.06
2018-09-19T06:33:38.243Z,18.08
2018-09-19T06:34:38.225Z,18.13
2018-09-19T06:35:38.204Z,18.15
2018-09-19T06:36:38.188Z,18.24
2018-09-19T06:37:38.173Z,18.33
2018-09-19T06:38:38.153Z,18.39
2018-09-19T06:39:38.134Z,18.33
2018-09-19T06:40:38.172Z,18.49
2018-09-19T06:41:38.100Z,18.56
2018-09-19T06:42:38.106Z,18.48
2018-09-19T06:43:38.065Z,18.58
2018-09-19T06:44:38.047Z,18.60
2018-09-19T06:45:38.091Z,18.71
2018-09-19T06:46:38.014Z,18.70
2018-09-19T06:47:37.996Z,18.78
2018-09-19T06:48:37.980Z,18.76
2018-09-19T06:49:37.963Z,18.79
2018-09-19T06:50:37.943Z,18.89
2018-09-19T06:51:37.933Z,19.04
2018-09-19T06:52:37.914Z,18.98
2018-09-19T06:53:37.895Z,18.97
2018-09-19T06:54:37.881Z,19.05
2018-09-19T06:55:37.873Z,19.15
2018-09-19T06:56:37.886Z,19.15
2018-09-19T06:57:37.833Z,19.13
2018-09-19T06:58:37.812Z,19.20
2018-09-19T06:59:37.879Z,19.22
2018-09-19T07:00:37.788Z,19.23
2018-09-19T07:01:38.120Z,19.37
2018-09-19T07:02:37.758Z,19.23
2018-09-19T07:03:37.732Z,19.41
2018-09-19T07:04:37.727Z,19.38
2018-09-19T07:05:37.748Z,19.42
2018-09-19T07:06:37.692Z,19.56
2018-09-19T07:07:37.817Z,19.60
2018-09-19T07:08:37.656Z,19.64
2018-09-19T07:09:37.641Z,19.63
2018-09-19T07:10:37.704Z,19.74
2018-09-19T07:11:37.608Z,19.77
2018-09-19T07:12:37.997Z,19.81
2018-09-19T07:13:37.577Z,19.89
2018-09-19T07:14:37.569Z,19.92
2018-09-19T07:15:37.548Z,19.97
2018-09-19T07:16:37.529Z,19.97
2018-09-19T07:17:37.533Z,20.04
2018-09-19T07:18:37.509Z,20.09
2018-09-19T07:19:37.486Z,20.15
2018-09-19T07:20:37.550Z,20.19
2018-09-19T07:21:37.457Z,20.29
2018-09-19T07:22:37.442Z,20.25
2018-09-19T07:23:37.455Z,20.30
2018-09-19T07:24:37.415Z,20.32
2018-09-19T07:25:37.393Z,20.41
2018-09-19T07:26:37.383Z,20.42
2018-09-19T07:27:37.369Z,20.52
2018-09-19T07:28:37.351Z,20.49
2018-09-19T07:29:37.341Z,20.64
2018-09-19T07:30:37.382Z,20.50
2018-09-19T07:31:37.305Z,20.70
2018-09-19T07:32:37.294Z,20.68
2018-09-19T07:33:37.275Z,20.70
2018-09-19T07:34:37.258Z,20.74
2018-09-19T07:35:37.296Z,20.73
2018-09-19T07:36:37.372Z,20.82
2018-09-19T07:37:37.207Z,20.79
2018-09-19T07:38:37.197Z,20.86
2018-09-19T07:39:37.182Z,20.90
2018-09-19T07:40:37.173Z,20.93
2018-09-19T07:41:37.153Z,21.07
2018-09-19T07:42:37.135Z,21.05
2018-09-19T07:43:37.122Z,21.11
2018-09-19T07:44:37.571Z,21.08
2018-09-19T07:45:37.696Z,21.05
2018-09-19T07:46:37.131Z,21.20
2018-09-19T07:47:37.067Z,21.13
2018-09-19T07:48:37.130Z,21.28
2018-09-19T07:49:37.022Z,21.38
2018-09-19T07:50:37.012Z,21.44
2018-09-19T07:51:36.995Z,21.38
2018-09-19T07:52:36.981Z,21.45
2018-09-19T07:53:36.963Z,21.59
2018-09-19T07:54:36.996Z,21.63
2018-09-19T07:55:37.008Z,21.62
2018-09-19T07:56:36.937Z,21.71
2018-09-19T07:57:36.909Z,21.66
2018-09-19T07:58:36.900Z,21.75
2018-09-19T07:59:36.883Z,21.85
2018-09-19T08:00:36.999Z,21.85
2018-09-19T08:01:36.842Z,21.94
2018-09-19T08:02:36.831Z,22.01
2018-09-19T08:03:36.825Z,21.93
2018-09-19T08:04:37.567Z,22.03
2018-09-19T08:05:36.784Z,22.01
2018-09-19T08:06:36.810Z,22.12
2018-09-19T08:07:36.747Z,22.06
2018-09-19T08:08:36.742Z,22.09
2018-09-19T08:09:36.719Z,22.15
2018-09-19T08:10:36.706Z,22.01
2018-09-19T08:11:36.686Z,22.15
2018-09-19T08:12:36.687Z,22.06
2018-09-19T08:13:36.659Z,22.16
2018-09-19T08:14:36.723Z,22.01
2018-09-19T08:15:36.632Z,22.03
2018-09-19T08:16:36.620Z,22.11
2018-09-19T08:17:36.605Z,22.13
2018-09-19T08:18:36.597Z,22.09
2018-09-19T08:19:36.577Z,22.16
2018-09-19T08:20:36.573Z,22.21
2018-09-19T08:21:36.551Z,22.25
2018-09-19T08:22:36.571Z,22.25
2018-09-19T08:23:36.525Z,22.36
2018-09-19T08:24:36.497Z,22.38
2018-09-19T08:25:36.475Z,22.40
2018-09-19T08:26:36.466Z,22.51
2018-09-19T08:27:36.456Z,22.56
2018-09-19T08:28:36.434Z,22.67
2018-09-19T08:29:36.423Z,22.61
2018-09-19T08:30:36.404Z,22.73
2018-09-19T08:31:36.391Z,22.76
2018-09-19T08:32:36.378Z,22.73
2018-09-19T08:33:36.355Z,22.76
2018-09-19T08:34:36.350Z,22.71
2018-09-19T08:35:36.344Z,22.73
2018-09-19T08:36:36.320Z,22.78
2018-09-19T08:37:36.302Z,22.80
2018-09-19T08:38:36.302Z,23.06
2018-09-19T08:39:36.310Z,23.01
2018-09-19T08:40:36.258Z,23.01
2018-09-19T08:41:36.243Z,23.07
2018-09-19T08:42:36.242Z,23.01
2018-09-19T08:43:36.219Z,22.98
2018-09-19T08:44:36.219Z,22.98
2018-09-19T08:45:36.190Z,22.86
2018-09-19T08:46:36.174Z,22.81
2018-09-19T08:47:36.177Z,22.83
2018-09-19T08:48:36.149Z,22.91
2018-09-19T08:49:36.137Z,22.91
2018-09-19T08:50:36.189Z,22.91
2018-09-19T08:51:36.109Z,22.93
2018-09-19T08:52:36.091Z,22.96
2018-09-19T08:53:36.072Z,23.03
2018-09-19T08:54:36.065Z,23.13
2018-09-19T08:55:36.045Z,23.15
2018-09-19T08:56:36.037Z,23.22
2018-09-19T08:57:36.022Z,23.33
2018-09-19T08:58:36.025Z,23.37
2018-09-19T08:59:35.995Z,23.44
2018-09-19T09:00:35.983Z,23.54
2018-09-19T09:01:35.968Z,23.54
2018-09-19T09:02:35.952Z,23.55
2018-09-19T09:03:35.940Z,23.70
2018-09-19T09:04:35.931Z,23.67
2018-09-19T09:05:35.914Z,23.74
2018-09-19T09:06:35.920Z,23.79
2018-09-19T09:07:35.884Z,23.88
2018-09-19T09:08:35.869Z,23.89
2018-09-19T09:09:35.857Z,23.86
2018-09-19T09:10:35.843Z,23.97
2018-09-19T09:11:35.829Z,24.06
2018-09-19T09:12:35.847Z,24.10
2018-09-19T09:13:35.810Z,24.06
2018-09-19T09:14:35.785Z,24.01
2018-09-19T09:15:35.804Z,24.08
2018-09-19T09:16:35.775Z,24.13
2018-09-19T09:17:35.747Z,24.18
2018-09-19T09:18:35.730Z,24.23
2018-09-19T09:19:35.724Z,24.11
2018-09-19T09:20:35.707Z,24.13
2018-09-19T09:21:35.709Z,24.18
2018-09-19T09:22:35.687Z,24.16
2018-09-19T09:23:35.670Z,24.16
2018-09-19T09:24:35.656Z,24.21
2018-09-19T09:25:35.636Z,24.18
2018-09-19T09:26:35.632Z,24.11
2018-09-19T09:27:35.613Z,24.18
2018-09-19T09:28:35.604Z,24.23
2018-09-19T09:29:35.595Z,24.15
2018-09-19T09:30:35.567Z,24.19
2018-09-19T09:31:35.560Z,24.25
2018-09-19T09:32:35.552Z,24.21
2018-09-19T09:33:35.536Z,24.22
2018-09-19T09:34:35.524Z,24.25
2018-09-19T09:35:35.508Z,24.34
2018-09-19T09:36:35.497Z,24.25
2018-09-19T09:37:35.488Z,24.23
2018-09-19T09:38:35.473Z,24.34
2018-09-19T09:39:35.457Z,24.33
2018-09-19T09:40:35.523Z,24.34
2018-09-19T09:41:35.432Z,24.33
2018-09-19T09:42:35.416Z,24.34
2018-09-19T09:43:35.446Z,24.40
2018-09-19T09:44:35.400Z,24.47
2018-09-19T09:45:35.381Z,24.47
2018-09-19T09:46:35.367Z,24.51
2018-09-19T09:47:35.343Z,24.48
2018-09-19T09:48:35.346Z,24.63
2018-09-19T09:49:35.321Z,24.60
2018-09-19T09:50:35.312Z,24.65
2018-09-19T09:51:35.317Z,24.78
2018-09-19T09:52:35.280Z,24.78
2018-09-19T09:53:35.277Z,24.71
2018-09-19T09:54:35.259Z,24.81
2018-09-19T09:55:35.254Z,24.81
2018-09-19T09:56:35.236Z,24.82
2018-09-19T09:57:35.212Z,24.81
2018-09-19T09:58:35.243Z,24.89
2018-09-19T09:59:35.213Z,24.89
2018-09-19T10:00:35.184Z,24.97
2018-09-19T10:01:35.168Z,24.90
2018-09-19T10:02:35.157Z,24.90
2018-09-19T10:03:35.141Z,24.94
2018-09-19T10:04:35.135Z,24.97
2018-09-19T10:05:35.113Z,25.00
2018-09-19T10:06:35.185Z,25.04
2018-09-19T10:07:35.092Z,25.19
2018-09-19T10:08:35.084Z,25.19
2018-09-19T10:09:35.070Z,25.33
2018-09-19T10:10:35.055Z,25.28
2018-09-19T10:11:35.043Z,25.33
2018-09-19T10:12:35.035Z,25.38
2018-09-19T10:13:35.050Z,25.43
2018-09-19T10:14:35.005Z,25.56
2018-09-19T10:15:34.994Z,25.59
2018-09-19T10:16:34.974Z,25.55
2018-09-19T10:17:34.960Z,25.53
2018-09-19T10:18:34.943Z,25.58
2018-09-19T10:19:34.927Z,25.64
2018-09-19T10:20:34.919Z,25.58
2018-09-19T10:21:34.901Z,25.66
2018-09-19T10:22:34.912Z,25.74
2018-09-19T10:23:34.888Z,25.82
2018-09-19T10:24:34.868Z,25.90
2018-09-19T10:25:34.858Z,26.01
2018-09-19T10:26:34.857Z,26.00
2018-09-19T10:27:34.828Z,25.89
2018-09-19T10:28:34.817Z,25.75
2018-09-19T10:29:34.871Z,25.82
2018-09-19T10:30:34.812Z,25.83
2018-09-19T10:31:34.779Z,25.82
2018-09-19T10:32:34.771Z,25.82
2018-09-19T10:33:34.761Z,25.75
2018-09-19T10:34:34.746Z,25.82
2018-09-19T10:35:34.797Z,25.77
2018-09-19T10:36:34.729Z,25.86
2018-09-19T10:37:34.709Z,26.04
2018-09-19T10:38:34.700Z,26.07
2018-09-19T10:39:34.690Z,26.33
2018-09-19T10:40:34.679Z,26.49
2018-09-19T10:41:34.657Z,26.71
2018-09-19T10:42:34.655Z,26.80
2018-09-19T10:43:34.636Z,26.93
2018-09-19T10:44:34.632Z,27.01
2018-09-19T10:45:34.620Z,27.04
2018-09-19T10:46:34.648Z,27.10
2018-09-19T10:47:34.625Z,27.00
2018-09-19T10:48:34.585Z,27.07
2018-09-19T10:49:34.619Z,26.97
2018-09-19T10:50:34.558Z,26.83
2018-09-19T10:51:34.548Z,26.94
2018-09-19T10:52:34.530Z,27.00
2018-09-19T10:53:34.534Z,26.98
2018-09-19T10:54:34.517Z,27.07
2018-09-19T10:55:34.517Z,27.12
2018-09-19T10:56:34.495Z,27.08
2018-09-19T10:57:34.472Z,27.01
2018-09-19T10:58:34.475Z,26.93
2018-09-19T10:59:34.473Z,26.90
2018-09-19T11:00:34.445Z,26.85
2018-09-19T11:01:34.438Z,26.85
2018-09-19T11:02:34.424Z,26.85
2018-09-19T11:03:34.416Z,26.83
2018-09-19T11:04:34.403Z,26.71
2018-09-19T11:05:34.394Z,26.70
2018-09-19T11:06:34.383Z,26.56
2018-09-19T11:07:34.376Z,26.46
2018-09-19T11:08:34.365Z,26.52
2018-09-19T11:09:34.350Z,26.41
2018-09-19T11:10:34.338Z,26.27
2018-09-19T11:11:34.335Z,26.16
2018-09-19T11:12:34.321Z,26.12
2018-09-19T11:13:34.306Z,26.11
2018-09-19T11:14:34.286Z,25.90
2018-09-19T11:15:34.285Z,25.90
2018-09-19T11:16:34.270Z,25.82
2018-09-19T11:17:34.259Z,25.68
2018-09-19T11:18:34.249Z,25.63
2018-09-19T11:19:34.232Z,25.66
2018-09-19T11:20:34.223Z,25.70
2018-09-19T11:21:34.213Z,25.77
2018-09-19T11:22:34.199Z,25.92
2018-09-19T11:23:34.203Z,25.98
2018-09-19T11:24:34.183Z,26.11
2018-09-19T11:25:34.163Z,26.36
2018-09-19T11:26:34.186Z,26.43
2018-09-19T11:27:34.141Z,26.53
2018-09-19T11:28:34.132Z,26.60
2018-09-19T11:29:34.115Z,26.64
2018-09-19T11:30:34.107Z,26.76
2018-09-19T11:31:34.093Z,26.86
2018-09-19T11:32:34.921Z,27.03
2018-09-19T11:33:34.104Z,27.03
2018-09-19T11:34:34.060Z,27.19
2018-09-19T11:35:34.056Z,27.23
2018-09-19T11:36:34.038Z,27.40
2018-09-19T11:37:34.030Z,27.41
2018-09-19T11:38:34.060Z,27.41
2018-09-19T11:39:34.283Z,27.57
2018-09-19T11:40:33.990Z,27.57
2018-09-19T11:41:33.980Z,27.52
2018-09-19T11:42:34.014Z,27.60
2018-09-19T11:43:33.980Z,27.60
2018-09-19T11:44:33.946Z,27.53
2018-09-19T11:45:33.934Z,27.49
2018-09-19T11:46:34.181Z,27.60
2018-09-19T11:47:34.406Z,27.49
2018-09-19T11:48:33.941Z,27.42
2018-09-19T11:49:33.893Z,27.54
2018-09-19T11:50:33.882Z,27.63
2018-09-19T11:51:33.871Z,27.73
2018-09-19T11:52:34.468Z,27.80
2018-09-19T11:53:33.850Z,27.93
2018-09-19T11:54:33.843Z,27.87
2018-09-19T11:55:33.822Z,27.91
2018-09-19T11:56:33.818Z,27.85
2018-09-19T11:57:33.921Z,27.58
2018-09-19T11:58:33.865Z,27.63
2018-09-19T11:59:33.791Z,27.66
2018-09-19T12:00:33.878Z,27.58
2018-09-19T12:01:33.788Z,27.42
2018-09-19T12:02:33.742Z,27.37
2018-09-19T12:03:33.740Z,27.27
2018-09-19T12:04:33.726Z,27.34
2018-09-19T12:05:33.715Z,27.23
2018-09-19T12:06:33.719Z,27.40
2018-09-19T12:07:33.694Z,27.45
2018-09-19T12:08:33.922Z,27.54
2018-09-19T12:09:33.675Z,27.63
2018-09-19T12:10:33.664Z,27.58
2018-09-19T12:11:33.654Z,27.68
2018-09-19T12:12:33.641Z,27.75
2018-09-19T12:13:33.682Z,27.79
2018-09-19T12:14:33.619Z,27.61
2018-09-19T12:15:33.601Z,27.60
2018-09-19T12:16:33.723Z,27.44
2018-09-19T12:17:33.587Z,27.30
2018-09-19T12:18:33.595Z,27.19
2018-09-19T12:19:33.610Z,27.15
2018-09-19T12:20:33.561Z,27.15
2018-09-19T12:21:33.539Z,27.13
2018-09-19T12:22:33.521Z,27.22
2018-09-19T12:23:33.513Z,27.10
2018-09-19T12:24:33.503Z,27.19
2018-09-19T12:25:33.496Z,27.16
2018-09-19T12:26:33.632Z,27.25
2018-09-19T12:27:33.463Z,27.38
2018-09-19T12:28:33.462Z,27.42
2018-09-19T12:29:33.443Z,27.61
2018-09-19T12:30:33.436Z,27.69
2018-09-19T12:31:33.434Z,27.80
2018-09-19T12:32:33.416Z,27.88
2018-09-19T12:33:33.406Z,27.85
2018-09-19T12:34:33.396Z,27.91
2018-09-19T12:35:33.387Z,28.06
2018-09-19T12:36:33.364Z,28.06
2018-09-19T12:37:33.364Z,28.17
2018-09-19T12:38:33.356Z,28.22
2018-09-19T12:39:33.362Z,28.25
2018-09-19T12:40:33.329Z,28.17
2018-09-19T12:41:33.320Z,28.28
2018-09-19T12:42:33.306Z,28.37
2018-09-19T12:43:33.301Z,28.47
2018-09-19T12:44:33.285Z,28.38
2018-09-19T12:45:33.273Z,28.28
2018-09-19T12:46:33.260Z,28.31
2018-09-19T12:47:33.247Z,28.52
2018-09-19T12:48:33.243Z,28.47
2018-09-19T12:49:33.238Z,28.47
2018-09-19T12:50:33.221Z,28.40
2018-09-19T12:51:33.212Z,28.43
2018-09-19T12:52:33.202Z,28.32
2018-09-19T12:53:33.190Z,28.24